sensor_id;sensor_type;location;lat;lon;timestamp;temperature;humidity
10300;DHT22;5195;48.562;9.192;2023-09-19T00:01:14;21.10;57.80
10300;DHT22;5195;48.562;9.192;2023-09-19T00:03:41;21.20;58.00
10300;DHT22;5195;48.562;9.192;2023-09-19T00:06:06;20.80;58.20
10300;DHT22;5195;48.562;9.192;2023-09-19T00:08:35;20.80;58.70
10300;DHT22;5195;48.562;9.192;2023-09-19T00:11:00;20.90;58.20
10300;DHT22;5195;48.562;9.192;2023-09-19T00:13:27;21.00;58.00
10300;DHT22;5195;48.562;9.192;2023-09-19T00:15:53;20.70;58.10
10300;DHT22;5195;48.562;9.192;2023-09-19T00:18:19;20.70;58.80
10300;DHT22;5195;48.562;9.192;2023-09-19T00:20:45;21.00;58.40
10300;DHT22;5195;48.562;9.192;2023-09-19T00:23:13;20.90;58.30
10300;DHT22;5195;48.562;9.192;2023-09-19T00:25:39;21.10;58.20
10300;DHT22;5195;48.562;9.192;2023-09-19T00:28:05;21.10;57.90
10300;DHT22;5195;48.562;9.192;2023-09-19T00:30:30;21.20;57.80
10300;DHT22;5195;48.562;9.192;2023-09-19T00:32:56;20.90;58.10
10300;DHT22;5195;48.562;9.192;2023-09-19T00:35:22;20.50;58.70
10300;DHT22;5195;48.562;9.192;2023-09-19T00:37:50;20.50;58.70
10300;DHT22;5195;48.562;9.192;2023-09-19T00:40:16;20.40;58.90
10300;DHT22;5195;48.562;9.192;2023-09-19T00:42:42;20.40;58.90
10300;DHT22;5195;48.562;9.192;2023-09-19T00:45:08;20.60;58.20
10300;DHT22;5195;48.562;9.192;2023-09-19T00:47:33;20.80;57.40
10300;DHT22;5195;48.562;9.192;2023-09-19T00:49:59;20.90;56.80
10300;DHT22;5195;48.562;9.192;2023-09-19T00:52:24;20.60;57.20
10300;DHT22;5195;48.562;9.192;2023-09-19T00:54:50;20.20;58.00
10300;DHT22;5195;48.562;9.192;2023-09-19T00:57:17;19.90;58.60
10300;DHT22;5195;48.562;9.192;2023-09-19T00:59:44;20.00;58.70
10300;DHT22;5195;48.562;9.192;2023-09-19T01:02:09;20.30;58.30
10300;DHT22;5195;48.562;9.192;2023-09-19T01:04:35;20.20;58.20
10300;DHT22;5195;48.562;9.192;2023-09-19T01:07:00;19.90;58.70
10300;DHT22;5195;48.562;9.192;2023-09-19T01:09:27;20.00;59.00
10300;DHT22;5195;48.562;9.192;2023-09-19T01:11:53;19.90;59.00
10300;DHT22;5195;48.562;9.192;2023-09-19T01:14:34;19.70;59.40
10300;DHT22;5195;48.562;9.192;2023-09-19T01:17:03;19.60;59.80
10300;DHT22;5195;48.562;9.192;2023-09-19T01:22:25;20.10;59.10
10300;DHT22;5195;48.562;9.192;2023-09-19T01:28:00;19.90;59.00
10300;DHT22;5195;48.562;9.192;2023-09-19T01:30:20;19.80;58.90
10300;DHT22;5195;48.562;9.192;2023-09-19T01:32:44;19.60;59.50
10300;DHT22;5195;48.562;9.192;2023-09-19T01:35:09;19.70;59.90
10300;DHT22;5195;48.562;9.192;2023-09-19T01:37:35;19.70;59.70
10300;DHT22;5195;48.562;9.192;2023-09-19T01:40:07;19.90;60.00
10300;DHT22;5195;48.562;9.192;2023-09-19T01:48:22;19.40;60.40
10300;DHT22;5195;48.562;9.192;2023-09-19T01:50:55;19.30;60.80
10300;DHT22;5195;48.562;9.192;2023-09-19T01:55:50;19.80;61.00
10300;DHT22;5195;48.562;9.192;2023-09-19T01:58:32;19.80;60.50
10300;DHT22;5195;48.562;9.192;2023-09-19T02:00:56;20.20;60.00
10300;DHT22;5195;48.562;9.192;2023-09-19T02:03:23;20.00;59.90
10300;DHT22;5195;48.562;9.192;2023-09-19T02:05:49;19.80;60.30
10300;DHT22;5195;48.562;9.192;2023-09-19T02:08:16;19.60;60.60
10300;DHT22;5195;48.562;9.192;2023-09-19T02:10:39;19.70;60.60
10300;DHT22;5195;48.562;9.192;2023-09-19T02:13:05;19.70;60.40
10300;DHT22;5195;48.562;9.192;2023-09-19T02:15:31;19.80;60.10
10300;DHT22;5195;48.562;9.192;2023-09-19T02:17:56;19.80;60.10
10300;DHT22;5195;48.562;9.192;2023-09-19T02:20:22;19.90;60.00
10300;DHT22;5195;48.562;9.192;2023-09-19T02:22:47;20.20;59.20
10300;DHT22;5195;48.562;9.192;2023-09-19T02:25:13;20.40;58.70
10300;DHT22;5195;48.562;9.192;2023-09-19T02:27:38;20.20;58.70
10300;DHT22;5195;48.562;9.192;2023-09-19T02:30:06;20.20;58.60
10300;DHT22;5195;48.562;9.192;2023-09-19T02:32:31;20.30;58.20
10300;DHT22;5195;48.562;9.192;2023-09-19T02:34:57;20.40;58.00
10300;DHT22;5195;48.562;9.192;2023-09-19T02:37:22;20.50;58.10
10300;DHT22;5195;48.562;9.192;2023-09-19T02:39:49;19.80;59.00
10300;DHT22;5195;48.562;9.192;2023-09-19T02:42:14;19.90;59.10
10300;DHT22;5195;48.562;9.192;2023-09-19T02:44:40;19.60;59.70
10300;DHT22;5195;48.562;9.192;2023-09-19T02:47:06;19.60;59.70
10300;DHT22;5195;48.562;9.192;2023-09-19T02:49:32;19.80;59.00
10300;DHT22;5195;48.562;9.192;2023-09-19T02:51:59;19.80;58.90
10300;DHT22;5195;48.562;9.192;2023-09-19T02:54:24;19.50;59.40
10300;DHT22;5195;48.562;9.192;2023-09-19T02:56:50;19.60;59.80
10300;DHT22;5195;48.562;9.192;2023-09-19T02:59:15;19.50;59.70
10300;DHT22;5195;48.562;9.192;2023-09-19T03:01:44;19.30;60.00
10300;DHT22;5195;48.562;9.192;2023-09-19T03:04:07;19.00;60.30
10300;DHT22;5195;48.562;9.192;2023-09-19T03:06:32;18.80;60.70
10300;DHT22;5195;48.562;9.192;2023-09-19T03:09:00;18.70;61.10
10300;DHT22;5195;48.562;9.192;2023-09-19T03:11:26;18.70;61.50
10300;DHT22;5195;48.562;9.192;2023-09-19T03:13:52;19.00;62.10
10300;DHT22;5195;48.562;9.192;2023-09-19T03:16:17;19.10;61.90
10300;DHT22;5195;48.562;9.192;2023-09-19T03:18:44;19.40;61.30
10300;DHT22;5195;48.562;9.192;2023-09-19T03:21:09;19.40;61.00
10300;DHT22;5195;48.562;9.192;2023-09-19T03:23:35;19.60;60.90
10300;DHT22;5195;48.562;9.192;2023-09-19T03:26:01;19.60;60.70
10300;DHT22;5195;48.562;9.192;2023-09-19T03:28:26;19.70;60.50
10300;DHT22;5195;48.562;9.192;2023-09-19T03:31:03;19.90;60.00
10300;DHT22;5195;48.562;9.192;2023-09-19T03:33:28;20.00;60.00
10300;DHT22;5195;48.562;9.192;2023-09-19T03:35:54;19.90;60.00
10300;DHT22;5195;48.562;9.192;2023-09-19T03:38:20;20.20;59.40
10300;DHT22;5195;48.562;9.192;2023-09-19T03:40:46;20.50;58.10
10300;DHT22;5195;48.562;9.192;2023-09-19T03:43:12;20.60;57.80
10300;DHT22;5195;48.562;9.192;2023-09-19T03:45:39;20.60;57.80
10300;DHT22;5195;48.562;9.192;2023-09-19T03:48:08;20.40;58.10
10300;DHT22;5195;48.562;9.192;2023-09-19T03:50:34;19.70;59.70
10300;DHT22;5195;48.562;9.192;2023-09-19T03:52:59;19.70;59.70
10300;DHT22;5195;48.562;9.192;2023-09-19T03:55:26;19.60;60.60
10300;DHT22;5195;48.562;9.192;2023-09-19T03:57:51;19.60;60.60
10300;DHT22;5195;48.562;9.192;2023-09-19T04:00:17;19.90;60.10
10300;DHT22;5195;48.562;9.192;2023-09-19T04:02:42;20.20;59.60
10300;DHT22;5195;48.562;9.192;2023-09-19T04:05:09;20.00;59.50
10300;DHT22;5195;48.562;9.192;2023-09-19T04:07:35;20.00;60.00
10300;DHT22;5195;48.562;9.192;2023-09-19T04:10:00;20.20;59.70
10300;DHT22;5195;48.562;9.192;2023-09-19T04:12:26;20.40;59.60
10300;DHT22;5195;48.562;9.192;2023-09-19T04:14:51;20.20;59.60
10300;DHT22;5195;48.562;9.192;2023-09-19T04:17:17;20.10;60.00
10300;DHT22;5195;48.562;9.192;2023-09-19T04:19:43;20.00;60.20
10300;DHT22;5195;48.562;9.192;2023-09-19T04:22:08;20.00;60.50
10300;DHT22;5195;48.562;9.192;2023-09-19T04:24:34;19.80;60.40
10300;DHT22;5195;48.562;9.192;2023-09-19T04:27:00;19.60;60.50
10300;DHT22;5195;48.562;9.192;2023-09-19T04:29:26;19.60;60.40
10300;DHT22;5195;48.562;9.192;2023-09-19T04:31:54;19.60;60.70
10300;DHT22;5195;48.562;9.192;2023-09-19T04:34:19;19.80;60.30
10300;DHT22;5195;48.562;9.192;2023-09-19T04:36:45;19.60;60.30
10300;DHT22;5195;48.562;9.192;2023-09-19T04:39:11;19.60;60.60
10300;DHT22;5195;48.562;9.192;2023-09-19T04:41:36;19.50;60.70
10300;DHT22;5195;48.562;9.192;2023-09-19T04:44:02;19.50;60.60
10300;DHT22;5195;48.562;9.192;2023-09-19T04:46:27;19.30;60.60
10300;DHT22;5195;48.562;9.192;2023-09-19T04:48:53;19.40;60.70
10300;DHT22;5195;48.562;9.192;2023-09-19T04:51:18;19.60;60.40
10300;DHT22;5195;48.562;9.192;2023-09-19T04:53:45;19.40;60.70
10300;DHT22;5195;48.562;9.192;2023-09-19T04:56:10;19.40;60.70
10300;DHT22;5195;48.562;9.192;2023-09-19T04:58:36;19.70;60.50
10300;DHT22;5195;48.562;9.192;2023-09-19T05:01:01;19.90;60.20
10300;DHT22;5195;48.562;9.192;2023-09-19T05:03:27;20.00;59.90
10300;DHT22;5195;48.562;9.192;2023-09-19T05:05:53;20.00;59.90
10300;DHT22;5195;48.562;9.192;2023-09-19T05:08:19;20.00;59.90
10300;DHT22;5195;48.562;9.192;2023-09-19T05:10:44;19.60;60.40
10300;DHT22;5195;48.562;9.192;2023-09-19T05:13:10;19.60;60.90
10300;DHT22;5195;48.562;9.192;2023-09-19T05:15:36;19.90;60.80
10300;DHT22;5195;48.562;9.192;2023-09-19T05:18:02;20.00;60.80
10300;DHT22;5195;48.562;9.192;2023-09-19T05:20:28;19.90;60.20
10300;DHT22;5195;48.562;9.192;2023-09-19T05:23:00;20.00;60.20
10300;DHT22;5195;48.562;9.192;2023-09-19T05:25:28;20.20;59.90
10300;DHT22;5195;48.562;9.192;2023-09-19T05:27:56;19.70;61.20
10300;DHT22;5195;48.562;9.192;2023-09-19T05:30:20;19.70;60.50
10300;DHT22;5195;48.562;9.192;2023-09-19T05:32:46;19.70;60.50
10300;DHT22;5195;48.562;9.192;2023-09-19T05:35:12;19.70;60.50
10300;DHT22;5195;48.562;9.192;2023-09-19T05:37:37;19.80;60.40
10300;DHT22;5195;48.562;9.192;2023-09-19T05:40:04;20.10;59.90
10300;DHT22;5195;48.562;9.192;2023-09-19T05:42:33;20.30;59.30
10300;DHT22;5195;48.562;9.192;2023-09-19T05:44:59;20.50;59.00
10300;DHT22;5195;48.562;9.192;2023-09-19T05:47:24;20.60;58.40
10300;DHT22;5195;48.562;9.192;2023-09-19T05:49:50;20.40;58.80
10300;DHT22;5195;48.562;9.192;2023-09-19T05:52:15;20.30;58.90
10300;DHT22;5195;48.562;9.192;2023-09-19T05:54:41;20.50;58.70
10300;DHT22;5195;48.562;9.192;2023-09-19T05:57:06;20.70;58.50
10300;DHT22;5195;48.562;9.192;2023-09-19T05:59:32;20.50;58.70
10300;DHT22;5195;48.562;9.192;2023-09-19T06:01:58;20.40;58.60
10300;DHT22;5195;48.562;9.192;2023-09-19T06:04:23;20.30;58.90
10300;DHT22;5195;48.562;9.192;2023-09-19T06:06:50;19.70;59.90
10300;DHT22;5195;48.562;9.192;2023-09-19T06:09:15;19.60;59.80
10300;DHT22;5195;48.562;9.192;2023-09-19T06:11:41;19.80;60.10
10300;DHT22;5195;48.562;9.192;2023-09-19T06:14:07;20.40;58.70
10300;DHT22;5195;48.562;9.192;2023-09-19T06:16:33;20.40;58.70
10300;DHT22;5195;48.562;9.192;2023-09-19T06:18:59;20.30;58.80
10300;DHT22;5195;48.562;9.192;2023-09-19T06:21:28;20.30;58.80
10300;DHT22;5195;48.562;9.192;2023-09-19T06:23:54;20.30;58.70
10300;DHT22;5195;48.562;9.192;2023-09-19T06:26:19;20.20;58.60
10300;DHT22;5195;48.562;9.192;2023-09-19T06:28:45;20.00;59.40
10300;DHT22;5195;48.562;9.192;2023-09-19T06:31:10;19.70;60.00
10300;DHT22;5195;48.562;9.192;2023-09-19T06:33:36;19.80;60.50
10300;DHT22;5195;48.562;9.192;2023-09-19T06:36:05;20.20;60.50
10300;DHT22;5195;48.562;9.192;2023-09-19T06:38:31;20.40;60.00
10300;DHT22;5195;48.562;9.192;2023-09-19T06:40:58;20.30;59.80
10300;DHT22;5195;48.562;9.192;2023-09-19T06:43:22;20.50;59.90
10300;DHT22;5195;48.562;9.192;2023-09-19T06:45:48;20.30;59.90
10300;DHT22;5195;48.562;9.192;2023-09-19T06:48:14;20.50;60.20
10300;DHT22;5195;48.562;9.192;2023-09-19T06:50:39;20.40;60.10
10300;DHT22;5195;48.562;9.192;2023-09-19T06:53:06;20.50;60.70
10300;DHT22;5195;48.562;9.192;2023-09-19T06:55:32;20.40;60.00
10300;DHT22;5195;48.562;9.192;2023-09-19T06:57:58;20.80;60.20
10300;DHT22;5195;48.562;9.192;2023-09-19T07:00:25;21.00;59.00
10300;DHT22;5195;48.562;9.192;2023-09-19T07:02:57;20.90;58.90
10300;DHT22;5195;48.562;9.192;2023-09-19T07:05:22;21.10;59.20
10300;DHT22;5195;48.562;9.192;2023-09-19T07:07:50;21.50;58.60
10300;DHT22;5195;48.562;9.192;2023-09-19T07:10:16;21.50;58.60
10300;DHT22;5195;48.562;9.192;2023-09-19T07:12:41;21.60;58.40
10300;DHT22;5195;48.562;9.192;2023-09-19T07:15:07;21.70;57.90
10300;DHT22;5195;48.562;9.192;2023-09-19T07:17:33;21.50;58.30
10300;DHT22;5195;48.562;9.192;2023-09-19T07:19:58;21.20;59.00
10300;DHT22;5195;48.562;9.192;2023-09-19T07:22:28;21.70;59.30
10300;DHT22;5195;48.562;9.192;2023-09-19T07:24:57;21.60;59.20
10300;DHT22;5195;48.562;9.192;2023-09-19T07:27:22;21.60;59.90
10300;DHT22;5195;48.562;9.192;2023-09-19T07:29:48;21.50;59.60
10300;DHT22;5195;48.562;9.192;2023-09-19T07:32:13;21.40;60.00
10300;DHT22;5195;48.562;9.192;2023-09-19T07:34:39;21.70;59.90
10300;DHT22;5195;48.562;9.192;2023-09-19T07:37:04;21.80;59.40
10300;DHT22;5195;48.562;9.192;2023-09-19T07:39:30;22.10;58.50
10300;DHT22;5195;48.562;9.192;2023-09-19T07:41:56;22.20;58.50
10300;DHT22;5195;48.562;9.192;2023-09-19T07:44:21;22.10;59.00
10300;DHT22;5195;48.562;9.192;2023-09-19T07:46:47;22.40;58.60
10300;DHT22;5195;48.562;9.192;2023-09-19T07:49:13;22.80;57.30
10300;DHT22;5195;48.562;9.192;2023-09-19T07:51:38;23.30;56.60
10300;DHT22;5195;48.562;9.192;2023-09-19T07:54:04;23.30;56.40
10300;DHT22;5195;48.562;9.192;2023-09-19T07:56:29;23.40;56.20
10300;DHT22;5195;48.562;9.192;2023-09-19T07:58:55;23.40;56.00
10300;DHT22;5195;48.562;9.192;2023-09-19T08:01:21;23.20;56.20
10300;DHT22;5195;48.562;9.192;2023-09-19T08:03:47;23.30;55.60
10300;DHT22;5195;48.562;9.192;2023-09-19T08:06:13;23.20;55.70
10300;DHT22;5195;48.562;9.192;2023-09-19T08:08:38;23.00;56.00
10300;DHT22;5195;48.562;9.192;2023-09-19T08:11:04;23.10;54.70
10300;DHT22;5195;48.562;9.192;2023-09-19T08:13:29;23.30;54.30
10300;DHT22;5195;48.562;9.192;2023-09-19T08:15:55;23.50;54.20
10300;DHT22;5195;48.562;9.192;2023-09-19T08:18:20;23.30;54.30
10300;DHT22;5195;48.562;9.192;2023-09-19T08:20:51;23.30;53.90
10300;DHT22;5195;48.562;9.192;2023-09-19T08:23:18;23.00;53.20
10300;DHT22;5195;48.562;9.192;2023-09-19T08:25:44;23.00;53.20
10300;DHT22;5195;48.562;9.192;2023-09-19T08:28:09;23.20;52.10
10300;DHT22;5195;48.562;9.192;2023-09-19T08:30:35;23.00;52.40
10300;DHT22;5195;48.562;9.192;2023-09-19T08:33:01;23.00;51.90
10300;DHT22;5195;48.562;9.192;2023-09-19T08:35:26;23.20;51.40
10300;DHT22;5195;48.562;9.192;2023-09-19T08:37:51;23.40;51.60
10300;DHT22;5195;48.562;9.192;2023-09-19T08:40:17;23.20;52.10
10300;DHT22;5195;48.562;9.192;2023-09-19T08:42:53;23.30;52.00
10300;DHT22;5195;48.562;9.192;2023-09-19T08:45:18;23.10;51.90
10300;DHT22;5195;48.562;9.192;2023-09-19T08:47:50;23.00;51.60
10300;DHT22;5195;48.562;9.192;2023-09-19T08:50:23;23.00;51.20
10300;DHT22;5195;48.562;9.192;2023-09-19T08:52:45;23.10;50.70
10300;DHT22;5195;48.562;9.192;2023-09-19T08:55:14;23.50;51.20
10300;DHT22;5195;48.562;9.192;2023-09-19T08:57:39;23.50;51.10
10300;DHT22;5195;48.562;9.192;2023-09-19T09:00:05;23.70;50.00
10300;DHT22;5195;48.562;9.192;2023-09-19T09:02:31;24.00;50.30
10300;DHT22;5195;48.562;9.192;2023-09-19T09:04:56;24.30;49.20
10300;DHT22;5195;48.562;9.192;2023-09-19T09:07:22;24.40;47.10
10300;DHT22;5195;48.562;9.192;2023-09-19T09:09:47;24.50;48.20
10300;DHT22;5195;48.562;9.192;2023-09-19T09:12:13;24.30;48.80
10300;DHT22;5195;48.562;9.192;2023-09-19T09:14:40;24.40;48.40
10300;DHT22;5195;48.562;9.192;2023-09-19T09:17:05;24.30;48.90
10300;DHT22;5195;48.562;9.192;2023-09-19T09:19:31;24.20;48.50
10300;DHT22;5195;48.562;9.192;2023-09-19T09:22:10;24.20;48.50
10300;DHT22;5195;48.562;9.192;2023-09-19T09:24:36;24.50;48.30
10300;DHT22;5195;48.562;9.192;2023-09-19T09:27:03;24.60;46.80
10300;DHT22;5195;48.562;9.192;2023-09-19T09:32:19;24.60;46.30
10300;DHT22;5195;48.562;9.192;2023-09-19T09:34:44;24.30;47.10
10300;DHT22;5195;48.562;9.192;2023-09-19T09:37:16;23.90;47.80
10300;DHT22;5195;48.562;9.192;2023-09-19T09:39:45;23.50;48.10
10300;DHT22;5195;48.562;9.192;2023-09-19T09:42:07;23.30;48.50
10300;DHT22;5195;48.562;9.192;2023-09-19T09:44:32;23.10;48.70
10300;DHT22;5195;48.562;9.192;2023-09-19T09:46:58;23.30;46.70
10300;DHT22;5195;48.562;9.192;2023-09-19T09:49:24;23.30;47.10
10300;DHT22;5195;48.562;9.192;2023-09-19T09:52:06;23.20;47.50
10300;DHT22;5195;48.562;9.192;2023-09-19T09:54:31;23.00;47.70
10300;DHT22;5195;48.562;9.192;2023-09-19T09:57:00;23.10;46.00
10300;DHT22;5195;48.562;9.192;2023-09-19T09:59:49;23.10;46.40
10300;DHT22;5195;48.562;9.192;2023-09-19T10:02:14;23.30;46.10
10300;DHT22;5195;48.562;9.192;2023-09-19T10:04:39;23.70;45.10
10300;DHT22;5195;48.562;9.192;2023-09-19T10:07:04;23.90;45.00
10300;DHT22;5195;48.562;9.192;2023-09-19T10:09:30;23.90;45.20
10300;DHT22;5195;48.562;9.192;2023-09-19T10:12:00;24.00;44.20
10300;DHT22;5195;48.562;9.192;2023-09-19T10:14:21;23.90;44.70
10300;DHT22;5195;48.562;9.192;2023-09-19T10:16:47;24.00;44.40
10300;DHT22;5195;48.562;9.192;2023-09-19T10:19:19;24.20;44.30
10300;DHT22;5195;48.562;9.192;2023-09-19T10:21:38;24.60;43.80
10300;DHT22;5195;48.562;9.192;2023-09-19T10:24:03;24.80;43.90
10300;DHT22;5195;48.562;9.192;2023-09-19T10:26:29;25.00;44.70
10300;DHT22;5195;48.562;9.192;2023-09-19T10:28:55;25.20;43.10
10300;DHT22;5195;48.562;9.192;2023-09-19T10:31:20;25.30;43.50
10300;DHT22;5195;48.562;9.192;2023-09-19T10:33:46;25.50;41.80
10300;DHT22;5195;48.562;9.192;2023-09-19T10:36:11;25.60;42.20
10300;DHT22;5195;48.562;9.192;2023-09-19T10:38:38;26.30;42.80
10300;DHT22;5195;48.562;9.192;2023-09-19T10:41:03;26.20;42.20
10300;DHT22;5195;48.562;9.192;2023-09-19T10:43:30;26.60;40.70
10300;DHT22;5195;48.562;9.192;2023-09-19T10:45:55;26.60;40.60
10300;DHT22;5195;48.562;9.192;2023-09-19T10:48:20;26.50;40.50
10300;DHT22;5195;48.562;9.192;2023-09-19T10:50:48;26.60;39.40
10300;DHT22;5195;48.562;9.192;2023-09-19T10:53:13;26.50;40.00
10300;DHT22;5195;48.562;9.192;2023-09-19T10:55:39;26.60;38.30
10300;DHT22;5195;48.562;9.192;2023-09-19T10:58:05;26.40;39.50
10300;DHT22;5195;48.562;9.192;2023-09-19T11:00:50;26.50;40.30
10300;DHT22;5195;48.562;9.192;2023-09-19T11:05:41;26.40;39.60
10300;DHT22;5195;48.562;9.192;2023-09-19T11:08:07;26.40;39.40
10300;DHT22;5195;48.562;9.192;2023-09-19T11:10:50;26.40;40.30
10300;DHT22;5195;48.562;9.192;2023-09-19T11:13:28;26.40;41.10
10300;DHT22;5195;48.562;9.192;2023-09-19T11:26:44;25.80;41.50
10300;DHT22;5195;48.562;9.192;2023-09-19T11:29:30;25.60;41.60
10300;DHT22;5195;48.562;9.192;2023-09-19T11:31:55;25.40;41.50
10300;DHT22;5195;48.562;9.192;2023-09-19T11:34:44;25.60;39.40
10300;DHT22;5195;48.562;9.192;2023-09-19T11:39:36;25.80;38.90
10300;DHT22;5195;48.562;9.192;2023-09-19T11:42:03;26.30;38.50
10300;DHT22;5195;48.562;9.192;2023-09-19T11:44:32;26.30;37.80
10300;DHT22;5195;48.562;9.192;2023-09-19T11:46:57;26.40;37.40
10300;DHT22;5195;48.562;9.192;2023-09-19T11:49:26;26.50;37.30
10300;DHT22;5195;48.562;9.192;2023-09-19T11:51:51;26.30;38.20
10300;DHT22;5195;48.562;9.192;2023-09-19T11:54:17;26.50;37.10
10300;DHT22;5195;48.562;9.192;2023-09-19T11:56:43;26.50;37.00
10300;DHT22;5195;48.562;9.192;2023-09-19T11:59:09;26.60;37.50
10300;DHT22;5195;48.562;9.192;2023-09-19T12:01:35;26.20;39.50
10300;DHT22;5195;48.562;9.192;2023-09-19T12:04:02;26.20;39.40
10300;DHT22;5195;48.562;9.192;2023-09-19T12:06:27;26.30;39.40
10300;DHT22;5195;48.562;9.192;2023-09-19T12:08:52;26.60;38.40
10300;DHT22;5195;48.562;9.192;2023-09-19T12:11:17;26.90;38.30
10300;DHT22;5195;48.562;9.192;2023-09-19T12:13:43;27.20;37.80
10300;DHT22;5195;48.562;9.192;2023-09-19T12:16:15;27.10;38.30
10300;DHT22;5195;48.562;9.192;2023-09-19T12:18:41;27.10;37.60
10300;DHT22;5195;48.562;9.192;2023-09-19T12:21:06;27.00;38.30
10300;DHT22;5195;48.562;9.192;2023-09-19T12:23:32;26.80;39.10
10300;DHT22;5195;48.562;9.192;2023-09-19T12:25:57;26.80;37.50
10300;DHT22;5195;48.562;9.192;2023-09-19T12:28:24;26.90;36.20
10300;DHT22;5195;48.562;9.192;2023-09-19T12:30:48;26.80;37.10
10300;DHT22;5195;48.562;9.192;2023-09-19T12:33:18;26.40;37.10
10300;DHT22;5195;48.562;9.192;2023-09-19T12:35:47;26.40;37.10
10300;DHT22;5195;48.562;9.192;2023-09-19T12:38:26;26.60;37.10
10300;DHT22;5195;48.562;9.192;2023-09-19T12:40:48;26.50;37.50
10300;DHT22;5195;48.562;9.192;2023-09-19T12:43:14;26.20;37.80
10300;DHT22;5195;48.562;9.192;2023-09-19T12:45:39;26.00;38.60
10300;DHT22;5195;48.562;9.192;2023-09-19T12:48:25;26.10;38.50
10300;DHT22;5195;48.562;9.192;2023-09-19T12:51:07;25.90;39.50
10300;DHT22;5195;48.562;9.192;2023-09-19T12:53:29;25.90;38.90
10300;DHT22;5195;48.562;9.192;2023-09-19T12:55:58;25.80;39.20
10300;DHT22;5195;48.562;9.192;2023-09-19T12:58:23;25.80;39.00
10300;DHT22;5195;48.562;9.192;2023-09-19T13:00:50;26.00;37.70
10300;DHT22;5195;48.562;9.192;2023-09-19T13:05:59;26.30;37.30
10300;DHT22;5195;48.562;9.192;2023-09-19T13:08:25;26.20;38.10
10300;DHT22;5195;48.562;9.192;2023-09-19T13:11:03;26.20;38.10
10300;DHT22;5195;48.562;9.192;2023-09-19T13:13:28;26.10;38.20
10300;DHT22;5195;48.562;9.192;2023-09-19T13:15:54;26.00;38.60
10300;DHT22;5195;48.562;9.192;2023-09-19T13:18:19;25.90;38.70
10300;DHT22;5195;48.562;9.192;2023-09-19T13:20:53;25.80;38.60
10300;DHT22;5195;48.562;9.192;2023-09-19T13:23:25;26.00;37.50
10300;DHT22;5195;48.562;9.192;2023-09-19T13:25:38;26.10;38.00
10300;DHT22;5195;48.562;9.192;2023-09-19T13:28:02;26.30;38.60
10300;DHT22;5195;48.562;9.192;2023-09-19T13:30:28;26.80;38.20
10300;DHT22;5195;48.562;9.192;2023-09-19T13:33:07;26.80;38.20
10300;DHT22;5195;48.562;9.192;2023-09-19T13:35:32;26.90;36.70
10300;DHT22;5195;48.562;9.192;2023-09-19T13:37:58;26.80;37.50
10300;DHT22;5195;48.562;9.192;2023-09-19T13:40:24;26.80;37.50
10300;DHT22;5195;48.562;9.192;2023-09-19T13:42:49;26.40;38.00
10300;DHT22;5195;48.562;9.192;2023-09-19T13:45:15;26.10;38.40
10300;DHT22;5195;48.562;9.192;2023-09-19T13:47:41;25.90;38.80
10300;DHT22;5195;48.562;9.192;2023-09-19T13:50:07;25.90;38.20
10300;DHT22;5195;48.562;9.192;2023-09-19T13:52:33;26.20;38.20
10300;DHT22;5195;48.562;9.192;2023-09-19T13:54:59;26.10;38.40
10300;DHT22;5195;48.562;9.192;2023-09-19T13:57:25;25.80;38.70
10300;DHT22;5195;48.562;9.192;2023-09-19T13:59:51;25.60;39.10
10300;DHT22;5195;48.562;9.192;2023-09-19T14:02:16;25.70;38.80
10300;DHT22;5195;48.562;9.192;2023-09-19T14:04:42;25.70;39.00
10300;DHT22;5195;48.562;9.192;2023-09-19T14:07:07;25.50;39.30
10300;DHT22;5195;48.562;9.192;2023-09-19T14:09:33;25.40;39.40
10300;DHT22;5195;48.562;9.192;2023-09-19T14:11:59;25.60;39.00
10300;DHT22;5195;48.562;9.192;2023-09-19T14:14:24;25.60;39.20
10300;DHT22;5195;48.562;9.192;2023-09-19T14:16:50;25.70;38.30
10300;DHT22;5195;48.562;9.192;2023-09-19T14:19:15;25.90;38.40
10300;DHT22;5195;48.562;9.192;2023-09-19T14:21:41;26.10;37.50
10300;DHT22;5195;48.562;9.192;2023-09-19T14:24:06;26.00;38.00
10300;DHT22;5195;48.562;9.192;2023-09-19T14:26:32;26.00;37.10
10300;DHT22;5195;48.562;9.192;2023-09-19T14:28:58;26.10;37.50
10300;DHT22;5195;48.562;9.192;2023-09-19T14:31:23;26.00;37.80
10300;DHT22;5195;48.562;9.192;2023-09-19T14:33:57;26.00;37.80
10300;DHT22;5195;48.562;9.192;2023-09-19T14:36:23;25.80;37.50
10300;DHT22;5195;48.562;9.192;2023-09-19T14:38:51;25.80;37.50
10300;DHT22;5195;48.562;9.192;2023-09-19T14:41:14;25.70;38.00
10300;DHT22;5195;48.562;9.192;2023-09-19T14:43:40;25.70;36.40
10300;DHT22;5195;48.562;9.192;2023-09-19T14:46:06;25.80;35.90
10300;DHT22;5195;48.562;9.192;2023-09-19T14:48:34;25.70;36.50
10300;DHT22;5195;48.562;9.192;2023-09-19T14:51:04;25.20;37.70
10300;DHT22;5195;48.562;9.192;2023-09-19T14:53:30;25.10;37.60
10300;DHT22;5195;48.562;9.192;2023-09-19T14:55:55;24.90;37.90
10300;DHT22;5195;48.562;9.192;2023-09-19T14:58:21;24.80;38.30
10300;DHT22;5195;48.562;9.192;2023-09-19T15:00:46;24.90;38.10
10300;DHT22;5195;48.562;9.192;2023-09-19T15:03:12;25.00;38.20
10300;DHT22;5195;48.562;9.192;2023-09-19T15:05:38;25.20;37.20
10300;DHT22;5195;48.562;9.192;2023-09-19T15:08:05;25.30;36.80
10300;DHT22;5195;48.562;9.192;2023-09-19T15:10:31;25.30;36.70
10300;DHT22;5195;48.562;9.192;2023-09-19T15:12:57;25.50;36.60
10300;DHT22;5195;48.562;9.192;2023-09-19T15:15:24;25.70;36.30
10300;DHT22;5195;48.562;9.192;2023-09-19T15:17:50;25.30;37.20
10300;DHT22;5195;48.562;9.192;2023-09-19T15:20:16;25.30;37.20
10300;DHT22;5195;48.562;9.192;2023-09-19T15:22:42;25.30;36.90
10300;DHT22;5195;48.562;9.192;2023-09-19T15:25:08;25.20;37.40
10300;DHT22;5195;48.562;9.192;2023-09-19T15:27:33;25.00;38.00
10300;DHT22;5195;48.562;9.192;2023-09-19T15:30:03;25.00;36.90
10300;DHT22;5195;48.562;9.192;2023-09-19T15:32:28;25.00;37.50
10300;DHT22;5195;48.562;9.192;2023-09-19T15:34:54;25.00;37.40
10300;DHT22;5195;48.562;9.192;2023-09-19T15:37:19;25.30;36.60
10300;DHT22;5195;48.562;9.192;2023-09-19T15:39:45;25.50;35.90
10300;DHT22;5195;48.562;9.192;2023-09-19T15:42:11;25.30;36.50
10300;DHT22;5195;48.562;9.192;2023-09-19T15:44:36;25.00;37.30
10300;DHT22;5195;48.562;9.192;2023-09-19T15:47:03;24.70;37.60
10300;DHT22;5195;48.562;9.192;2023-09-19T15:49:30;25.00;36.90
10300;DHT22;5195;48.562;9.192;2023-09-19T15:51:56;25.00;36.90
10300;DHT22;5195;48.562;9.192;2023-09-19T15:54:23;25.00;37.20
10300;DHT22;5195;48.562;9.192;2023-09-19T15:56:49;25.00;37.10
10300;DHT22;5195;48.562;9.192;2023-09-19T15:59:15;24.90;37.60
10300;DHT22;5195;48.562;9.192;2023-09-19T16:01:41;24.60;38.00
10300;DHT22;5195;48.562;9.192;2023-09-19T16:04:06;24.70;38.20
10300;DHT22;5195;48.562;9.192;2023-09-19T16:06:34;24.60;38.10
10300;DHT22;5195;48.562;9.192;2023-09-19T16:09:00;24.30;38.60
10300;DHT22;5195;48.562;9.192;2023-09-19T16:11:26;24.30;38.60
10300;DHT22;5195;48.562;9.192;2023-09-19T16:13:51;24.50;38.70
10300;DHT22;5195;48.562;9.192;2023-09-19T16:16:17;24.80;38.10